Time;durP1;ratioP1;P1;durP2;ratioP2;P2;SDS_P1;SDS_P2;PMS_P1;PMS_P2;Temp;Humidity;BMP_temperature;BMP_pressure;BME280_temperature;BME280_humidity;BME280_pressure;Samples;Min_cycle;Max_cycle;Signal;HPM_P1;HPM_P2
2023/01/08 00:02:48;;;;;;;9.73;8.73;;;;;;;7.48;62.85;97450.56;8315164;28;20210;-72
2023/01/08 00:06:51;;;;;;;9.57;8.67;;;;;;;7.49;63.06;97439.38;8314882;28;20226;-72
2023/01/08 00:10:56;;;;;;;9.50;8.17;;;;;;;7.83;62.08;97438.81;8314812;28;20190;-72
2023/01/08 00:14:58;;;;;;;8.70;7.90;;;;;;;7.84;61.46;97437.91;8314870;28;20535;-72
2023/01/08 00:19:01;;;;;;;9.97;8.97;;;;;;;7.68;62.14;97429.97;8314519;28;20508;-71
2023/01/08 00:23:04;;;;;;;9.73;8.73;;;;;;;8.02;61.14;97431.16;8314146;28;20194;-72
2023/01/08 00:27:08;;;;;;;9.63;8.60;;;;;;;8.22;60.12;97425.97;8314380;28;20187;-72
2023/01/08 00:31:12;;;;;;;8.93;8.10;;;;;;;8.31;60.04;97422.16;8313959;28;20214;-72
2023/01/08 00:35:15;;;;;;;9.47;8.53;;;;;;;7.95;60.96;97419.41;8314635;28;20376;-72
2023/01/08 00:39:18;;;;;;;9.57;8.23;;;;;;;8.38;59.41;97415.00;8314020;28;20190;-72
2023/01/08 00:43:23;;;;;;;9.43;8.43;;;;;;;8.15;60.15;97424.56;8313973;28;20268;-72
2023/01/08 00:47:25;;;;;;;11.57;9.03;;;;;;;8.06;60.41;97427.53;8314622;28;20202;-72
2023/01/08 00:51:28;;;;;;;10.57;9.57;;;;;;;8.17;60.05;97415.03;8313707;28;20369;-72
2023/01/08 00:55:31;;;;;;;10.30;9.20;;;;;;;8.29;59.55;97407.66;8314158;28;20217;-72
2023/01/08 00:59:36;;;;;;;10.47;8.93;;;;;;;7.83;60.84;97395.81;8314305;28;20195;-72
2023/01/08 01:03:39;;;;;;;9.00;8.20;;;;;;;7.91;61.40;97389.53;8314010;28;20200;-72
2023/01/08 01:07:42;;;;;;;9.87;8.97;;;;;;;7.54;61.75;97376.44;8314214;28;20234;-72
2023/01/08 01:11:45;;;;;;;9.80;8.90;;;;;;;7.68;61.54;97386.16;8314120;28;20343;-71
2023/01/08 01:15:58;;;;;;;9.23;8.33;;;;;;;7.92;60.48;97399.78;8314117;28;20227;-72
2023/01/08 01:20:02;;;;;;;9.80;8.80;;;;;;;7.47;61.73;97392.22;8313599;28;20183;-72
2023/01/08 01:24:06;;;;;;;9.93;9.00;;;;;;;7.66;61.71;97392.31;8316044;28;20194;-71
2023/01/08 01:28:09;;;;;;;10.07;9.07;;;;;;;7.57;61.91;97391.75;8319636;28;20190;-72
2023/01/08 01:32:13;;;;;;;10.53;9.00;;;;;;;7.85;60.71;97395.78;8319417;28;20231;-71
2023/01/08 01:36:18;;;;;;;9.07;8.27;;;;;;;8.01;59.64;97386.50;8319403;28;20484;-71
2023/01/08 01:40:21;;;;;;;9.27;8.40;;;;;;;7.99;60.23;97384.84;8319702;28;20183;-72
2023/01/08 01:44:36;;;;;;;9.50;8.50;;;;;;;8.09;59.45;97391.31;8319077;28;20367;-72
2023/01/08 01:48:40;;;;;;;9.67;8.77;;;;;;;8.16;59.13;97378.97;8319091;28;20186;-72
2023/01/08 01:52:46;;;;;;;9.93;8.97;;;;;;;7.94;59.97;97374.75;8318604;28;20471;-72
2023/01/08 01:56:49;;;;;;;10.40;9.40;;;;;;;7.95;59.87;97371.25;8318425;28;20218;-71
2023/01/08 02:00:53;;;;;;;11.87;10.70;;;;;;;7.43;61.91;97381.19;8318746;28;20189;-71
2023/01/08 02:04:58;;;;;;;10.63;9.53;;;;;;;7.80;60.67;97366.75;8318096;28;20207;-71
2023/01/08 02:09:02;;;;;;;11.33;10.27;;;;;;;8.02;60.64;97358.94;8318364;28;20466;-72
2023/01/08 02:13:08;;;;;;;10.53;9.50;;;;;;;8.05;60.18;97353.63;8318432;28;20183;-71
2023/01/08 02:17:16;;;;;;;10.60;9.53;;;;;;;7.78;61.84;97348.78;8318115;28;20211;-72
2023/01/08 02:21:29;;;;;;;11.17;9.93;;;;;;;7.95;61.16;97352.38;8318006;28;20195;-72
2023/01/08 02:25:55;;;;;;;10.23;9.20;;;;;;;7.88;61.67;97349.25;8317904;28;20183;-72
2023/01/08 02:29:58;;;;;;;10.57;9.43;;;;;;;8.04;60.03;97344.25;8317821;28;20190;-72
2023/01/08 02:34:01;;;;;;;9.97;9.00;;;;;;;8.32;59.48;97340.41;8317082;28;20214;-72
2023/01/08 02:38:04;;;;;;;10.67;9.57;;;;;;;7.48;62.16;97344.94;8316804;28;20221;-72
2023/01/08 02:42:11;;;;;;;11.13;10.03;;;;;;;7.31;62.34;97338.75;8317276;28;20269;-72
2023/01/08 02:46:17;;;;;;;11.23;10.13;;;;;;;7.51;62.59;97350.78;8317261;28;20186;-72
2023/01/08 02:50:26;;;;;;;10.70;9.70;;;;;;;6.90;64.02;97341.25;8317436;28;20479;-72
2023/01/08 02:54:32;;;;;;;10.83;9.83;;;;;;;7.33;63.08;97338.66;8316967;28;20194;-72
2023/01/08 02:58:37;;;;;;;11.43;9.77;;;;;;;7.09;63.37;97318.19;8316158;28;20222;-72
2023/01/08 03:02:41;;;;;;;11.60;10.50;;;;;;;7.00;64.24;97329.69;8316743;28;20186;-72
2023/01/08 03:06:45;;;;;;;10.90;9.80;;;;;;;6.73;66.00;97330.78;8316041;28;20354;-72
2023/01/08 03:10:55;;;;;;;11.77;10.57;;;;;;;7.23;63.66;97327.91;8316245;28;20183;-72
2023/01/08 03:15:00;;;;;;;12.20;11.00;;;;;;;6.37;66.04;97313.28;8316127;28;20184;-72
2023/01/08 03:19:08;;;;;;;12.33;11.13;;;;;;;6.18;66.58;97319.09;8315581;28;20210;-72
2023/01/08 03:23:12;;;;;;;10.37;9.37;;;;;;;6.68;65.88;97301.81;8315573;28;20488;-72
2023/01/08 03:27:18;;;;;;;12.07;10.10;;;;;;;6.72;64.78;97299.06;8315591;28;20298;-72
2023/01/08 03:31:24;;;;;;;12.17;11.00;;;;;;;6.98;64.07;97299.75;8315607;28;20182;-71
2023/01/08 03:35:29;;;;;;;11.10;10.00;;;;;;;7.18;63.62;97286.06;8315464;28;20250;-72
2023/01/08 03:39:38;;;;;;;11.60;10.40;;;;;;;6.67;63.38;97217.81;8314851;28;20195;-71
2023/01/08 03:43:41;;;;;;;11.63;10.43;;;;;;;7.42;62.78;97259.28;8314776;28;20183;-71
2023/01/08 03:47:45;;;;;;;9.57;8.67;;;;;;;7.38;62.63;97257.72;8314338;28;20186;-71
2023/01/08 03:51:48;;;;;;;10.73;9.73;;;;;;;6.69;65.57;97255.44;8314548;28;20191;-71
2023/01/08 03:55:51;;;;;;;10.60;9.60;;;;;;;7.44;62.59;97251.47;8314904;28;20223;-71
2023/01/08 03:59:53;;;;;;;10.97;9.87;;;;;;;7.16;64.09;97254.38;8314510;28;20190;-71
2023/01/08 04:03:58;;;;;;;9.77;8.87;;;;;;;7.43;63.37;97249.81;8314994;28;20372;-71
2023/01/08 04:08:00;;;;;;;10.07;9.07;;;;;;;7.30;63.69;97251.25;8314316;28;20509;-71
2023/01/08 04:12:04;;;;;;;10.50;9.40;;;;;;;7.39;63.28;97243.13;8315060;28;20198;-72
2023/01/08 04:16:07;;;;;;;10.40;9.40;;;;;;;7.05;63.12;97239.41;8314157;28;20210;-71
2023/01/08 04:20:12;;;;;;;11.43;10.03;;;;;;;7.05;64.42;97257.41;8315016;28;20190;-71
2023/01/08 04:24:15;;;;;;;11.30;10.20;;;;;;;7.06;63.23;97238.47;8314026;28;20206;-72
2023/01/08 04:28:18;;;;;;;10.30;9.30;;;;;;;7.38;61.93;97193.31;8314590;28;20191;-71
2023/01/08 04:32:21;;;;;;;9.50;8.60;;;;;;;7.99;60.56;97249.03;8314534;28;20191;-71
2023/01/08 04:36:25;;;;;;;10.43;9.03;;;;;;;8.01;60.64;97238.66;8314317;28;20229;-71
2023/01/08 04:40:28;;;;;;;10.33;9.33;;;;;;;7.66;62.08;97247.97;8314295;28;20266;-71
2023/01/08 04:44:31;;;;;;;10.07;8.70;;;;;;;7.73;61.56;97246.78;8313963;28;20183;-71
2023/01/08 04:48:34;;;;;;;10.70;9.60;;;;;;;6.39;65.85;97245.44;8314123;28;20190;-71
2023/01/08 04:52:38;;;;;;;11.00;9.90;;;;;;;6.85;64.87;97237.63;8313393;28;20217;-71
2023/01/08 04:56:40;;;;;;;10.13;9.13;;;;;;;7.13;63.89;97219.31;8314015;28;20394;-71
2023/01/08 05:00:43;;;;;;;9.97;8.97;;;;;;;7.02;64.37;97224.06;8319352;28;20190;-71
2023/01/08 05:04:49;;;;;;;10.67;9.67;;;;;;;6.41;65.61;97225.66;8320454;28;20521;-71
2023/01/08 05:08:54;;;;;;;9.93;9.03;;;;;;;6.66;65.38;97204.09;8320245;28;20238;-71
2023/01/08 05:12:58;;;;;;;9.77;8.77;;;;;;;7.13;63.99;97205.59;8319196;28;20194;-71
2023/01/08 05:17:01;;;;;;;9.90;9.00;;;;;;;6.55;65.85;97203.69;8319348;28;20211;-71
2023/01/08 05:21:05;;;;;;;11.07;10.00;;;;;;;6.42;65.67;97196.47;8319880;28;20194;-71
2023/01/08 05:25:09;;;;;;;10.50;9.40;;;;;;;6.86;65.61;97203.28;8319697;28;20401;-71
2023/01/08 05:29:12;;;;;;;9.70;8.80;;;;;;;6.69;65.84;97216.84;8319117;28;20187;-71
2023/01/08 05:33:15;;;;;;;9.13;8.33;;;;;;;6.54;66.40;97220.88;8319665;28;20209;-72
2023/01/08 05:37:18;;;;;;;9.10;8.27;;;;;;;6.63;66.54;97215.34;8319192;28;20229;-71
2023/01/08 05:41:22;;;;;;;9.70;8.77;;;;;;;6.97;64.51;97213.97;8319434;28;20183;-71
2023/01/08 05:45:25;;;;;;;10.80;9.00;;;;;;;6.77;64.66;97213.97;8319231;28;20313;-71
2023/01/08 05:49:28;;;;;;;9.40;8.40;;;;;;;6.11;66.84;97202.00;8319085;28;20198;-70
2023/01/08 05:53:31;;;;;;;9.33;8.40;;;;;;;6.39;67.00;97199.16;8318861;28;20187;-70
2023/01/08 05:57:37;;;;;;;10.73;9.63;;;;;;;6.53;66.25;97175.47;8319022;28;20233;-71
2023/01/08 06:01:40;;;;;;;9.80;8.90;;;;;;;6.16;66.94;97178.66;8318480;28;20187;-70
2023/01/08 06:05:43;;;;;;;10.90;9.23;;;;;;;6.14;67.44;97178.72;8318844;28;20340;-71
2023/01/08 06:09:46;;;;;;;10.37;9.27;;;;;;;6.00;68.25;97175.88;8318509;28;20187;-71
2023/01/08 06:13:50;;;;;;;11.63;9.57;;;;;;;6.09;68.42;97178.06;8318108;28;20218;-70
2023/01/08 06:17:53;;;;;;;9.87;8.87;;;;;;;6.38;67.06;97188.97;8318536;28;20274;-71
2023/01/08 06:21:56;;;;;;;10.20;9.20;;;;;;;6.33;66.85;97188.28;8317936;28;20223;-70
2023/01/08 06:26:00;;;;;;;9.50;8.50;;;;;;;6.38;67.34;97182.06;8318350;28;20206;-71
2023/01/08 06:30:05;;;;;;;9.60;8.70;;;;;;;6.44;65.82;97184.38;8318080;28;20191;-71
2023/01/08 06:34:08;;;;;;;10.30;9.40;;;;;;;5.91;67.57;97177.00;8318053;28;20183;-71
2023/01/08 06:38:11;;;;;;;10.57;9.47;;;;;;;6.25;67.03;97179.13;8317313;28;20230;-72
2023/01/08 06:42:14;;;;;;;9.40;8.40;;;;;;;6.54;67.04;97173.72;8317506;28;20186;-72
2023/01/08 06:46:18;;;;;;;10.20;9.30;;;;;;;6.51;66.12;97171.28;8317112;28;20186;-72
2023/01/08 06:50:21;;;;;;;9.47;8.60;;;;;;;6.40;67.28;97174.28;8317520;28;20187;-72
2023/01/08 06:54:23;;;;;;;10.50;9.50;;;;;;;6.66;65.81;97178.34;8317231;28;20198;-73
2023/01/08 06:58:27;;;;;;;10.47;9.37;;;;;;;6.30;67.44;97166.09;8316715;28;20388;-71
2023/01/08 07:02:31;;;;;;;10.10;9.10;;;;;;;6.60;66.44;97183.75;8317137;28;20182;-71
2023/01/08 07:06:34;;;;;;;10.63;9.53;;;;;;;6.73;65.58;97172.06;8316337;28;20509;-72
2023/01/08 07:10:37;;;;;;;11.03;9.93;;;;;;;6.70;66.65;97184.22;8316772;28;20471;-72
2023/01/08 07:14:40;;;;;;;11.07;9.97;;;;;;;6.40;66.66;97187.97;8315965;28;20304;-72
2023/01/08 07:18:45;;;;;;;10.83;9.73;;;;;;;6.92;65.13;97179.84;8315423;28;20230;-72
2023/01/08 07:22:47;;;;;;;11.30;10.30;;;;;;;6.08;68.08;97189.25;8315786;28;20210;-72
2023/01/08 07:26:50;;;;;;;10.37;9.47;;;;;;;6.36;67.10;97188.16;8316362;28;20189;-72
2023/01/08 07:30:53;;;;;;;11.23;10.23;;;;;;;6.53;67.05;97200.34;8316336;28;20187;-72
2023/01/08 07:34:58;;;;;;;12.17;10.97;;;;;;;6.35;66.78;97205.31;8315690;28;20202;-71
2023/01/08 07:39:01;;;;;;;10.93;9.83;;;;;;;6.52;66.54;97201.25;8315749;28;20207;-71
2023/01/08 07:43:05;;;;;;;10.20;9.30;;;;;;;6.58;66.10;97201.00;8315945;28;20186;-72
2023/01/08 07:47:08;;;;;;;10.83;9.80;;;;;;;6.42;67.19;97198.22;8315556;28;20198;-72
2023/01/08 07:51:12;;;;;;;10.73;9.73;;;;;;;6.97;65.03;97190.81;8315810;28;20182;-73
2023/01/08 07:55:15;;;;;;;12.60;11.33;;;;;;;7.25;63.73;97210.22;8315623;28;20529;-73
2023/01/08 07:59:18;;;;;;;11.30;10.20;;;;;;;7.65;63.10;97208.47;8314837;28;20222;-73
2023/01/08 08:03:21;;;;;;;11.20;10.13;;;;;;;7.38;62.91;97205.38;8314863;28;20199;-73
2023/01/08 08:07:25;;;;;;;10.30;9.30;;;;;;;7.13;64.57;97195.31;8314597;28;20233;-73
2023/01/08 08:11:28;;;;;;;12.43;11.13;;;;;;;6.60;66.41;97217.22;8315408;28;20182;-73
2023/01/08 08:15:31;;;;;;;9.97;9.07;;;;;;;7.08;64.65;97198.06;8314737;28;20474;-73
2023/01/08 08:19:34;;;;;;;10.13;9.13;;;;;;;7.75;62.58;97190.84;8314888;28;20506;-73
2023/01/08 08:23:38;;;;;;;10.00;9.00;;;;;;;6.80;65.88;97188.09;8315132;28;20200;-73
2023/01/08 08:27:41;;;;;;;11.23;10.13;;;;;;;6.63;66.29;97186.22;8315121;28;20187;-71
2023/01/08 08:31:44;;;;;;;10.10;9.10;;;;;;;7.46;63.77;97192.16;8315074;28;20198;-72
2023/01/08 08:35:48;;;;;;;12.20;10.83;;;;;;;7.05;65.71;97187.91;8321269;28;20182;-72
2023/01/08 08:39:52;;;;;;;9.90;8.90;;;;;;;7.42;64.59;97182.00;8320934;28;20294;-71
2023/01/08 08:43:55;;;;;;;10.23;9.27;;;;;;;7.05;65.56;97173.28;8321311;28;20205;-72
2023/01/08 08:47:58;;;;;;;10.57;9.47;;;;;;;6.46;66.97;97112.31;8321186;28;20187;-72
2023/01/08 08:52:01;;;;;;;11.10;10.10;;;;;;;6.89;66.59;97174.81;8321108;28;20245;-72
2023/01/08 08:56:07;;;;;;;9.83;8.90;;;;;;;7.95;63.29;97169.31;8320570;28;20365;-72
2023/01/08 09:00:11;;;;;;;10.20;8.80;;;;;;;7.89;63.42;97170.44;8320186;28;20210;-72
2023/01/08 09:04:14;;;;;;;10.23;9.23;;;;;;;7.44;64.64;97162.16;8320752;28;20179;-72
2023/01/08 09:08:17;;;;;;;13.60;11.40;;;;;;;7.28;65.75;97152.59;8320696;28;20245;-72
2023/01/08 09:12:21;;;;;;;11.53;10.40;;;;;;;7.17;66.62;97147.91;8320284;28;20343;-72
2023/01/08 09:16:24;;;;;;;10.40;9.40;;;;;;;7.95;63.63;97159.84;8320286;28;20217;-71
2023/01/08 09:20:27;;;;;;;9.97;9.00;;;;;;;8.20;63.03;97156.94;8320084;28;20207;-71
2023/01/08 09:24:31;;;;;;;11.00;9.87;;;;;;;7.84;64.79;97164.66;8319899;28;20199;-71
2023/01/08 09:28:35;;;;;;;12.10;9.53;;;;;;;8.14;63.39;97177.84;8320187;28;20499;-72
2023/01/08 09:32:38;;;;;;;9.07;8.27;;;;;;;8.05;64.05;97165.41;8319858;28;20196;-72
2023/01/08 09:36:41;;;;;;;9.57;8.57;;;;;;;8.85;61.39;97179.63;8319084;28;20207;-72
2023/01/08 09:40:48;;;;;;;9.50;8.60;;;;;;;8.70;61.66;97186.41;8319528;28;20514;-72
2023/01/08 09:44:53;;;;;;;9.73;8.77;;;;;;;8.51;62.50;97189.06;8318806;28;20186;-72
2023/01/08 09:48:59;;;;;;;9.80;8.90;;;;;;;8.22;63.94;97170.63;8319171;28;20214;-71
2023/01/08 09:53:02;;;;;;;9.17;8.37;;;;;;;8.46;63.67;97185.84;8319107;28;20185;-71
2023/01/08 09:57:05;;;;;;;9.10;8.17;;;;;;;8.43;63.79;97180.81;8319135;28;20183;-71
2023/01/08 10:01:12;;;;;;;9.67;8.77;;;;;;;8.33;64.12;97170.09;8318846;28;20231;-71
2023/01/08 10:05:17;;;;;;;10.43;9.43;;;;;;;7.95;66.23;97170.16;8318653;28;20836;-71
2023/01/08 10:09:24;;;;;;;11.27;10.07;;;;;;;10.00;68.47;97151.28;8318711;28;20382;-70
2023/01/08 10:13:27;;;;;;;9.03;7.93;;;;;;;10.54;61.69;97159.47;8318902;28;20191;-71
2023/01/08 10:17:37;;;;;;;9.80;8.90;;;;;;;9.11;63.23;97159.41;8318092;28;20191;-73
2023/01/08 10:21:40;;;;;;;10.70;9.70;;;;;;;8.47;64.24;97084.28;8318755;28;20196;-70
2023/01/08 10:25:52;;;;;;;9.93;8.70;;;;;;;8.85;64.13;97125.41;8318254;28;20201;-71
2023/01/08 10:30:05;;;;;;;9.63;8.73;;;;;;;9.34;63.78;97129.81;8318323;28;20188;-72
2023/01/08 10:34:10;;;;;;;9.03;8.13;;;;;;;9.39;63.74;97126.06;8317692;28;20196;-72
2023/01/08 10:38:24;;;;;;;19.23;15.00;;;;;;;9.31;65.03;97125.63;8317878;28;20222;-72
2023/01/08 10:42:26;;;;;;;30.07;21.73;;;;;;;9.51;64.44;97121.97;8317297;28;20189;-72
2023/01/08 10:46:35;;;;;;;17.47;13.70;;;;;;;9.70;64.33;97124.41;8317174;28;20192;-72
2023/01/08 10:50:39;;;;;;;10.87;9.73;;;;;;;9.54;65.34;97110.66;8317710;28;20461;-72
2023/01/08 10:54:42;;;;;;;9.80;8.90;;;;;;;9.77;65.38;97117.16;8316714;28;20193;-72
2023/01/08 10:58:44;;;;;;;9.17;8.37;;;;;;;9.84;64.72;97115.06;8315898;28;20228;-73
2023/01/08 11:02:49;;;;;;;8.43;7.53;;;;;;;9.56;66.61;97109.66;8316871;28;20204;-72
2023/01/08 11:06:58;;;;;;;7.83;7.13;;;;;;;9.68;66.89;97091.81;8317000;28;20240;-72
2023/01/08 11:11:02;;;;;;;7.17;6.47;;;;;;;9.86;66.33;97101.16;8316821;28;20269;-72
2023/01/08 11:15:07;;;;;;;7.80;6.80;;;;;;;9.53;67.39;97083.13;8316609;28;20200;-72
2023/01/08 11:19:17;;;;;;;7.77;7.07;;;;;;;9.45;68.41;97099.06;8316722;28;20236;-71
2023/01/08 11:23:23;;;;;;;7.67;6.60;;;;;;;9.83;67.57;97092.72;8316157;28;20182;-71
2023/01/08 11:27:29;;;;;;;7.70;6.87;;;;;;;9.80;68.17;97091.13;8316678;28;20189;-71
2023/01/08 11:31:38;;;;;;;9.00;8.10;;;;;;;9.76;68.10;97077.53;8316415;28;20190;-71
2023/01/08 11:35:43;;;;;;;7.90;7.10;;;;;;;9.92;67.31;97077.53;8315644;28;20193;-70
2023/01/08 11:39:48;;;;;;;8.60;6.73;;;;;;;9.94;67.67;97072.28;8315443;28;20220;-70
2023/01/08 11:44:04;;;;;;;7.37;6.53;;;;;;;9.37;66.72;96939.25;8315410;28;20183;-74
2023/01/08 11:48:32;;;;;;;6.90;6.17;;;;;;;9.81;66.71;97002.31;8315600;28;20185;-72
2023/01/08 11:52:44;;;;;;;7.10;6.40;;;;;;;10.10;67.44;97044.59;8301723;28;20202;-72
2023/01/08 11:56:59;;;;;;;6.30;5.80;;;;;;;10.05;68.70;97038.88;8315568;28;20189;-74
2023/01/08 12:01:21;;;;;;;7.20;6.60;;;;;;;10.15;67.48;97040.00;8314882;28;20218;-72
2023/01/08 12:05:29;;;;;;;6.97;6.37;;;;;;;10.09;68.26;97029.16;8315224;28;20218;-74
2023/01/08 12:09:39;;;;;;;7.27;6.50;;;;;;;9.93;68.96;97021.47;8314789;28;20474;-73
2023/01/08 12:13:57;;;;;;;6.47;5.97;;;;;;;10.02;67.84;97020.13;8314767;28;20192;-73
2023/01/08 12:18:19;;;;;;;6.60;6.00;;;;;;;9.94;68.13;97023.97;8314954;28;20472;-72
2023/01/08 12:22:37;;;;;;;6.37;5.70;;;;;;;10.15;67.87;97008.13;8315410;28;20456;-71
2023/01/08 12:26:46;;;;;;;7.00;6.30;;;;;;;10.13;68.29;97010.81;8314331;28;20192;-72
2023/01/08 12:31:15;;;;;;;6.93;6.27;;;;;;;10.08;68.27;97010.22;8314785;28;20194;-71
2023/01/08 12:35:21;;;;;;;7.93;7.10;;;;;;;10.06;68.21;96998.31;8314922;28;20377;-74
2023/01/08 12:39:28;;;;;;;7.77;7.07;;;;;;;10.12;68.37;97000.53;8314959;28;20209;-71
2023/01/08 12:43:34;;;;;;;10.97;7.10;;;;;;;9.93;68.42;96996.41;8314618;28;20208;-71
2023/01/08 12:47:48;;;;;;;7.47;6.77;;;;;;;10.33;67.37;96986.38;8314526;28;20196;-71
2023/01/08 12:51:56;;;;;;;7.37;6.63;;;;;;;10.44;67.34;96985.75;8315127;28;20207;-72
2023/01/08 12:56:04;;;;;;;7.93;7.17;;;;;;;10.00;68.95;96980.56;8314923;28;20183;-72
2023/01/08 13:00:15;;;;;;;7.27;6.57;;;;;;;10.19;67.80;96973.41;8314458;28;20211;-72
2023/01/08 13:04:19;;;;;;;7.60;6.90;;;;;;;10.27;67.56;96986.72;8315015;28;20205;-72
2023/01/08 13:08:29;;;;;;;6.83;6.23;;;;;;;10.19;67.78;96976.00;8314414;28;20238;-74
2023/01/08 13:12:35;;;;;;;7.23;6.60;;;;;;;10.25;67.80;96983.38;8316817;28;20417;-73
2023/01/08 13:16:39;;;;;;;7.57;6.77;;;;;;;10.17;67.92;96970.06;8315120;28;20190;-73
2023/01/08 13:20:55;;;;;;;9.37;7.83;;;;;;;10.20;67.75;96980.22;8318592;28;20212;-72
2023/01/08 13:25:27;;;;;;;9.13;8.07;;;;;;;10.19;67.26;96952.69;8320392;28;20382;-72
2023/01/08 13:29:41;;;;;;;8.80;7.90;;;;;;;10.06;67.84;96954.34;8320322;28;20189;-73
2023/01/08 13:33:46;;;;;;;7.17;6.47;;;;;;;10.30;67.93;96949.47;8319710;28;20245;-71
2023/01/08 13:37:51;;;;;;;7.80;7.10;;;;;;;10.18;67.87;96943.25;8320196;28;20248;-72
2023/01/08 13:41:59;;;;;;;8.50;7.57;;;;;;;10.20;67.87;96935.41;8319533;28;20216;-71
2023/01/08 13:46:08;;;;;;;6.70;6.10;;;;;;;10.00;69.56;96934.00;8319534;28;20186;-71
2023/01/08 13:50:17;;;;;;;9.23;7.77;;;;;;;9.89;69.63;96930.28;8320134;28;20194;-71
2023/01/08 13:54:31;;;;;;;8.97;8.07;;;;;;;10.49;67.56;96924.19;8320111;28;20470;-71
2023/01/08 13:58:36;;;;;;;8.50;7.63;;;;;;;10.30;68.67;96939.09;8319269;28;20205;-72
2023/01/08 14:02:48;;;;;;;8.63;7.73;;;;;;;10.55;67.42;96910.06;8319592;28;20210;-71
2023/01/08 14:06:52;;;;;;;7.77;7.07;;;;;;;10.25;68.93;96923.03;8319184;28;20244;-72
2023/01/08 14:10:57;;;;;;;8.10;7.30;;;;;;;9.70;68.47;96803.84;8319081;28;20187;-71
2023/01/08 14:15:03;;;;;;;8.20;7.40;;;;;;;10.32;68.89;96919.22;8317383;28;20190;-73
2023/01/08 14:19:06;;;;;;;9.10;8.20;;;;;;;10.18;69.77;96919.97;8318956;28;20189;-72
2023/01/08 14:23:11;;;;;;;9.43;8.43;;;;;;;10.37;68.75;96924.91;8319183;28;20199;-72
2023/01/08 14:27:24;;;;;;;10.20;8.93;;;;;;;10.52;68.30;96921.41;8317993;28;20186;-72
2023/01/08 14:31:28;;;;;;;11.80;10.10;;;;;;;9.96;70.34;96916.06;8318162;28;20202;-72
2023/01/08 14:35:33;;;;;;;10.27;9.30;;;;;;;9.93;70.95;96928.34;8317839;28;20190;-73
2023/01/08 14:39:37;;;;;;;9.73;8.80;;;;;;;9.64;71.05;96893.84;8317702;28;20210;-73
2023/01/08 14:43:43;;;;;;;11.47;10.37;;;;;;;9.64;71.73;96907.59;8318010;28;20410;-70
2023/01/08 14:47:48;;;;;;;10.83;9.67;;;;;;;9.93;70.71;96913.66;8317391;28;20190;-68
2023/01/08 14:51:51;;;;;;;10.57;9.43;;;;;;;9.82;69.64;96873.84;8317392;28;20189;-71
2023/01/08 14:55:56;;;;;;;11.50;9.83;;;;;;;9.67;71.64;96888.47;8316903;28;20233;-71
2023/01/08 15:00:01;;;;;;;13.77;12.33;;;;;;;9.62;71.40;96887.94;8317183;28;20218;-71
2023/01/08 15:04:06;;;;;;;11.83;10.63;;;;;;;9.89;70.83;96907.00;8317720;28;20493;-72
2023/01/08 15:08:23;;;;;;;11.67;10.47;;;;;;;9.91;69.97;96902.56;8318386;28;20252;-71
2023/01/08 15:12:29;;;;;;;10.33;9.33;;;;;;;9.44;72.87;96913.88;8316959;28;20190;-71
2023/01/08 15:16:37;;;;;;;10.90;9.90;;;;;;;9.44;72.71;96910.47;8317089;28;20207;-72
2023/01/08 15:20:40;;;;;;;9.33;8.43;;;;;;;9.92;70.72;96903.44;8316837;28;20214;-72
2023/01/08 15:24:50;;;;;;;10.03;9.03;;;;;;;9.91;70.74;96907.75;8316378;28;20197;-72
2023/01/08 15:28:54;;;;;;;10.40;9.30;;;;;;;9.25;72.70;96906.34;8316619;28;20193;-72
2023/01/08 15:33:08;;;;;;;9.70;8.80;;;;;;;9.63;71.71;96895.59;8316465;28;20211;-71
2023/01/08 15:37:11;;;;;;;9.93;9.03;;;;;;;9.21;72.77;96889.34;8316049;28;20188;-71
2023/01/08 15:43:08;;;;;;;11.03;9.93;;;;;;;9.43;72.16;96883.81;8315971;28;20336;-71
2023/01/08 15:45:42;;;;;;;11.00;8.73;;;;;;;9.05;73.06;96852.41;8315095;28;20185;-72
2023/01/08 15:49:46;;;;;;;9.03;8.13;;;;;;;9.55;70.96;96884.84;8315737;28;20185;-72
2023/01/08 15:53:49;;;;;;;9.80;8.80;;;;;;;9.25;71.75;96877.09;8315407;28;20188;-70
2023/01/08 15:57:54;;;;;;;8.53;7.73;;;;;;;9.36;72.61;96878.16;8315861;28;20309;-70
2023/01/08 16:01:56;;;;;;;12.33;11.03;;;;;;;9.70;72.02;96875.41;8315586;28;20210;-71
2023/01/08 16:06:05;;;;;;;11.33;10.13;;;;;;;9.29;72.08;96850.16;8315526;28;20244;-71
2023/01/08 16:10:09;;;;;;;13.00;10.83;;;;;;;9.45;70.76;96876.81;8315042;28;20193;-71
2023/01/08 16:14:12;;;;;;;10.83;9.73;;;;;;;9.85;68.50;96871.09;8314885;28;20209;-71
2023/01/08 16:18:15;;;;;;;16.00;13.60;;;;;;;9.39;70.49;96849.56;8315221;28;20200;-72
2023/01/08 16:22:19;;;;;;;10.47;9.57;;;;;;;9.25;70.52;96825.44;8314689;28;20217;-71
2023/01/08 16:26:22;;;;;;;12.40;10.97;;;;;;;8.97;72.10;96848.50;8314684;28;20183;-71
2023/01/08 16:30:26;;;;;;;10.03;9.10;;;;;;;9.55;69.10;96840.91;8314653;28;20250;-71
2023/01/08 16:34:29;;;;;;;9.40;8.43;;;;;;;9.12;70.28;96846.81;8314922;28;20371;-71
2023/01/08 16:38:34;;;;;;;9.13;8.33;;;;;;;9.01;70.85;96838.81;8314553;28;20472;-71
2023/01/08 16:42:37;;;;;;;9.13;8.20;;;;;;;9.26;69.89;96843.44;8314616;28;20532;-72
2023/01/08 16:46:40;;;;;;;9.20;8.40;;;;;;;9.00;69.96;96831.97;8314414;28;20480;-72
2023/01/08 16:50:43;;;;;;;9.03;8.23;;;;;;;9.24;69.34;96824.59;8314101;28;20217;-72
2023/01/08 16:54:47;;;;;;;8.87;8.07;;;;;;;9.80;67.28;96832.56;8316541;28;20439;-72
2023/01/08 16:58:51;;;;;;;14.53;12.33;;;;;;;9.62;67.76;96818.16;8320857;28;20395;-73
2023/01/08 17:02:54;;;;;;;9.50;8.60;;;;;;;9.25;68.97;96821.09;8320216;28;20238;-72
2023/01/08 17:06:57;;;;;;;7.97;7.23;;;;;;;9.37;68.41;96810.06;8320431;28;20228;-72
2023/01/08 17:11:01;;;;;;;8.67;7.60;;;;;;;9.59;67.75;96799.31;8320608;28;20205;-72
2023/01/08 17:15:04;;;;;;;10.00;9.03;;;;;;;9.03;69.69;96790.50;8319707;28;20209;-72
2023/01/08 17:19:07;;;;;;;11.40;10.20;;;;;;;8.99;69.30;96770.94;8319763;28;20189;-72
2023/01/08 17:23:10;;;;;;;11.43;9.57;;;;;;;9.25;68.24;96763.44;8319737;28;20227;-72
2023/01/08 17:27:14;;;;;;;10.83;9.83;;;;;;;9.11;68.87;96761.66;8320175;28;20440;-72
2023/01/08 17:31:18;;;;;;;11.03;9.63;;;;;;;8.86;70.03;96765.63;8319418;28;20204;-71
2023/01/08 17:35:21;;;;;;;10.47;9.10;;;;;;;9.16;68.35;96764.81;8319111;28;20494;-71
2023/01/08 17:39:23;;;;;;;14.57;10.60;;;;;;;9.06;68.71;96743.81;8319480;28;20458;-71
2023/01/08 17:43:28;;;;;;;12.63;11.33;;;;;;;9.51;67.41;96744.66;8319165;28;20224;-71
2023/01/08 17:47:31;;;;;;;11.30;9.90;;;;;;;9.31;67.37;96737.22;8319064;28;20201;-71
2023/01/08 17:51:34;;;;;;;13.13;10.57;;;;;;;8.96;68.49;96730.63;8318900;28;20188;-71
2023/01/08 17:55:37;;;;;;;12.73;11.43;;;;;;;8.63;69.77;96717.91;8318850;28;20341;-71
2023/01/08 17:59:42;;;;;;;10.40;9.37;;;;;;;8.59;70.85;96734.47;8318380;28;20195;-71
2023/01/08 18:03:45;;;;;;;10.93;9.83;;;;;;;8.94;69.23;96704.06;8318627;28;20408;-71
2023/01/08 18:07:48;;;;;;;11.37;10.17;;;;;;;8.83;69.90;96723.66;8318096;28;20248;-72
2023/01/08 18:11:50;;;;;;;10.90;9.80;;;;;;;9.35;67.91;96713.72;8318698;28;20197;-71
2023/01/08 18:15:54;;;;;;;11.30;10.20;;;;;;;9.56;66.82;96721.13;8317698;28;20185;-71
2023/01/08 18:19:57;;;;;;;12.20;11.00;;;;;;;9.36;67.80;96714.53;8317958;28;20307;-72
2023/01/08 18:24:00;;;;;;;11.13;9.90;;;;;;;9.78;66.02;96711.13;8317887;28;20223;-71
2023/01/08 18:28:03;;;;;;;11.73;10.53;;;;;;;9.48;67.19;96695.75;8317820;28;20344;-72
2023/01/08 18:32:07;;;;;;;9.80;8.80;;;;;;;9.44;67.33;96696.00;8317792;28;20187;-72
2023/01/08 18:36:13;;;;;;;10.90;9.80;;;;;;;9.01;68.39;96701.97;8316909;28;20200;-72
2023/01/08 18:40:16;;;;;;;10.67;9.13;;;;;;;9.06;68.81;96691.34;8316952;28;20237;-72
2023/01/08 18:44:19;;;;;;;11.33;10.20;;;;;;;9.44;66.97;96699.41;8317380;28;20220;-73
2023/01/08 18:48:23;;;;;;;9.60;8.63;;;;;;;9.44;67.87;96707.16;8316823;28;20205;-73
2023/01/08 18:52:26;;;;;;;11.57;10.00;;;;;;;9.62;66.28;96678.56;8316283;28;20189;-74
2023/01/08 18:56:30;;;;;;;10.60;9.40;;;;;;;9.81;66.36;96692.03;8316395;28;20201;-73
2023/01/08 19:00:33;;;;;;;10.97;9.87;;;;;;;9.70;66.71;96684.91;8316168;28;20189;-75
2023/01/08 19:04:40;;;;;;;11.47;10.07;;;;;;;9.83;65.94;96679.81;8316640;28;20214;-77
2023/01/08 19:08:44;;;;;;;8.70;7.13;;;;;;;11.71;86.66;96690.94;8315826;28;20237;-73
2023/01/08 19:12:47;;;;;;;23.07;20.57;;;;;;;12.58;69.24;96655.34;8316258;28;20205;-73
2023/01/08 19:16:50;;;;;;;19.97;17.70;;;;;;;12.43;64.16;96633.09;8315899;28;20194;-74